WJA813 CYQM-CYYC
Flight info
| Callsign | WJA813 |
|---|---|
| Flight time | N/A |
| Altitude | 36000 |
| Route | TAFFY DCT QUBIS DCT MOFAT DCT PEMLU DCT 52N090W/N0462F380 DCT KAIIN DCT ELTAX DCT ILADA BIRKO6 |
| Aircraft | B38M/M-SDE1FGHILORVWXY/HB1 |
Departure
| Time | 2026-04-28 18:46 |
|---|---|
| Airport | Greater Moncton Roméo LeBlanc International Airport (CYQM) |
Arrival
| Time | N/A |
|---|---|
| Airport | Calgary International Airport (CYYC) |
| Time | Latitude | Longitude | Altitude | Speed | Heading |
|---|---|---|---|---|---|
| 2026-04-28 18:14 | 46.11591 | -64.68728 | 205 ft | 0 kts | 311° |
| 2026-04-28 18:34 | 46.11588 | -64.68722 | 202 ft | 4 kts | 312° |
| 2026-04-28 18:35 | 46.11569 | -64.68694 | 223 ft | 4 kts | 318° |
| 2026-04-28 18:35 | 46.11547 | -64.68672 | 222 ft | 4 kts | 336° |
| 2026-04-28 18:35 | 46.11525 | -64.68668 | 224 ft | 4 kts | 33° |
| 2026-04-28 18:35 | 46.11521 | -64.68672 | 223 ft | 0 kts | 42° |
| 2026-04-28 18:39 | 46.11523 | -64.68670 | 223 ft | 1 kts | 42° |
| 2026-04-28 18:39 | 46.11535 | -64.68654 | 224 ft | 4 kts | 42° |
| 2026-04-28 18:40 | 46.11555 | -64.68614 | 223 ft | 4 kts | 90° |
| 2026-04-28 18:40 | 46.11548 | -64.68583 | 224 ft | 4 kts | 118° |
| 2026-04-28 18:40 | 46.11545 | -64.68506 | 221 ft | 13 kts | 54° |
| 2026-04-28 18:40 | 46.11626 | -64.68396 | 221 ft | 18 kts | 43° |
| 2026-04-28 18:41 | 46.11722 | -64.68270 | 222 ft | 19 kts | 42° |
| 2026-04-28 18:41 | 46.11826 | -64.68136 | 221 ft | 21 kts | 41° |
| 2026-04-28 18:41 | 46.11915 | -64.68017 | 223 ft | 11 kts | 43° |
| 2026-04-28 18:41 | 46.11928 | -64.67963 | 221 ft | 2 kts | 122° |
| 2026-04-28 18:42 | 46.11897 | -64.67913 | 221 ft | 13 kts | 132° |
| 2026-04-28 18:42 | 46.11857 | -64.67778 | 222 ft | 17 kts | 59° |
| 2026-04-28 18:42 | 46.11946 | -64.67652 | 223 ft | 20 kts | 43° |
| 2026-04-28 18:42 | 46.12065 | -64.67494 | 222 ft | 26 kts | 42° |
| 2026-04-28 18:43 | 46.12205 | -64.67310 | 227 ft | 29 kts | 42° |
| 2026-04-28 18:43 | 46.12357 | -64.67109 | 218 ft | 31 kts | 42° |
| 2026-04-28 18:43 | 46.12506 | -64.66937 | 212 ft | 26 kts | 20° |
| 2026-04-28 18:43 | 46.12629 | -64.66881 | 212 ft | 12 kts | 48° |
| 2026-04-28 18:44 | 46.12636 | -64.66801 | 215 ft | 6 kts | 122° |
| 2026-04-28 18:44 | 46.12574 | -64.66826 | 215 ft | 0 kts | 221° |
| 2026-04-28 18:45 | 46.12572 | -64.66828 | 214 ft | 2 kts | 221° |
| 2026-04-28 18:45 | 46.12439 | -64.67004 | 213 ft | 62 kts | 222° |
| 2026-04-28 18:45 | 46.11952 | -64.67644 | 223 ft | 128 kts | 222° |
| 2026-04-28 18:45 | 46.11150 | -64.68702 | 246 ft | 179 kts | 223° |
| 2026-04-28 18:46 | 46.10229 | -64.69976 | 915 ft | 185 kts | 222° |
| 2026-04-28 18:46 | 46.09622 | -64.70869 | 1406 ft | 195 kts | 223° |
| 2026-04-28 18:46 | 46.08629 | -64.72385 | 1857 ft | 222 kts | 224° |
| 2026-04-28 18:46 | 46.07217 | -64.74570 | 3083 ft | 224 kts | 223° |
| 2026-04-28 18:47 | 46.06347 | -64.76451 | 4002 ft | 233 kts | 249° |
| 2026-04-28 18:47 | 46.06143 | -64.78057 | 4376 ft | 251 kts | 268° |
| 2026-04-28 18:47 | 46.06561 | -64.80550 | 4922 ft | 269 kts | 297° |
| 2026-04-28 18:47 | 46.07642 | -64.82834 | 5688 ft | 280 kts | 309° |
| 2026-04-28 18:48 | 46.08876 | -64.85039 | 6604 ft | 285 kts | 310° |
| 2026-04-28 18:48 | 46.10110 | -64.87268 | 7572 ft | 285 kts | 310° |
| 2026-04-28 18:48 | 46.11336 | -64.89497 | 8408 ft | 289 kts | 310° |
| 2026-04-28 18:48 | 46.12586 | -64.91781 | 9366 ft | 291 kts | 310° |
| 2026-04-28 18:49 | 46.13847 | -64.94091 | 10199 ft | 296 kts | 310° |
| 2026-04-28 18:49 | 46.14720 | -64.95690 | 10573 ft | 306 kts | 310° |
| 2026-04-28 18:49 | 46.16537 | -64.99028 | 11039 ft | 332 kts | 310° |
| 2026-04-28 18:49 | 46.18002 | -65.01721 | 11496 ft | 346 kts | 310° |
| 2026-04-28 18:50 | 46.19505 | -65.04487 | 12202 ft | 350 kts | 310° |
| 2026-04-28 18:50 | 46.21005 | -65.07253 | 12941 ft | 354 kts | 310° |
| 2026-04-28 18:50 | 46.22540 | -65.10081 | 13662 ft | 358 kts | 310° |
| 2026-04-28 18:50 | 46.24069 | -65.12904 | 14336 ft | 362 kts | 310° |
| 2026-04-28 18:51 | 46.25632 | -65.15793 | 14975 ft | 366 kts | 310° |
| 2026-04-28 18:51 | 46.27207 | -65.18705 | 15611 ft | 368 kts | 310° |
| 2026-04-28 18:51 | 46.28793 | -65.21643 | 16235 ft | 372 kts | 309° |
| 2026-04-28 18:51 | 46.30393 | -65.24607 | 16839 ft | 375 kts | 309° |
| 2026-04-28 18:52 | 46.32004 | -65.27598 | 17451 ft | 378 kts | 310° |
| 2026-04-28 18:52 | 46.33628 | -65.30614 | 18010 ft | 381 kts | 310° |
| 2026-04-28 18:52 | 46.35249 | -65.33629 | 18584 ft | 384 kts | 309° |
| 2026-04-28 18:52 | 46.36903 | -65.36707 | 19068 ft | 387 kts | 310° |
| 2026-04-28 18:53 | 46.38551 | -65.39779 | 19571 ft | 390 kts | 310° |
| 2026-04-28 18:53 | 46.40228 | -65.42907 | 20046 ft | 393 kts | 310° |
| 2026-04-28 18:53 | 46.41916 | -65.46061 | 20536 ft | 395 kts | 310° |
| 2026-04-28 18:53 | 46.43583 | -65.49178 | 21007 ft | 398 kts | 310° |
| 2026-04-28 18:54 | 46.45282 | -65.52359 | 21478 ft | 400 kts | 310° |
| 2026-04-28 18:54 | 46.46995 | -65.55570 | 21948 ft | 403 kts | 310° |
| 2026-04-28 18:54 | 46.48724 | -65.58814 | 22327 ft | 409 kts | 310° |
| 2026-04-28 18:54 | 46.50471 | -65.62095 | 22817 ft | 410 kts | 310° |
| 2026-04-28 18:55 | 46.52220 | -65.65385 | 23270 ft | 414 kts | 311° |
| 2026-04-28 18:55 | 46.53986 | -65.68710 | 23749 ft | 416 kts | 311° |
| 2026-04-28 18:55 | 46.55765 | -65.72064 | 24161 ft | 419 kts | 311° |
| 2026-04-28 18:55 | 46.57535 | -65.75405 | 24542 ft | 422 kts | 311° |
| 2026-04-28 18:56 | 46.59332 | -65.78800 | 24930 ft | 424 kts | 311° |
| 2026-04-28 18:56 | 46.61138 | -65.82218 | 25328 ft | 426 kts | 311° |
| 2026-04-28 18:56 | 46.62950 | -65.85652 | 25687 ft | 429 kts | 312° |
| 2026-04-28 18:56 | 46.64765 | -65.89095 | 25948 ft | 435 kts | 312° |
| 2026-04-28 18:57 | 46.66614 | -65.92605 | 26368 ft | 436 kts | 312° |
| 2026-04-28 18:57 | 46.68466 | -65.96128 | 26750 ft | 438 kts | 312° |
| 2026-04-28 18:57 | 46.70304 | -65.99628 | 27120 ft | 440 kts | 313° |
| 2026-04-28 18:57 | 46.72166 | -66.03178 | 27501 ft | 442 kts | 313° |
| 2026-04-28 18:58 | 46.74036 | -66.06748 | 27866 ft | 444 kts | 313° |
| 2026-04-28 18:58 | 46.75915 | -66.10339 | 28213 ft | 446 kts | 313° |
| 2026-04-28 18:58 | 46.77803 | -66.13952 | 28544 ft | 448 kts | 313° |
| 2026-04-28 18:58 | 46.79704 | -66.17597 | 28878 ft | 450 kts | 313° |
| 2026-04-28 18:59 | 46.81583 | -66.21202 | 29219 ft | 452 kts | 313° |
| 2026-04-28 18:59 | 46.83499 | -66.24883 | 29575 ft | 453 kts | 313° |
| 2026-04-28 18:59 | 46.85415 | -66.28570 | 29905 ft | 455 kts | 313° |
| 2026-04-28 18:59 | 46.87337 | -66.32273 | 30247 ft | 457 kts | 313° |
| 2026-04-28 19:00 | 46.89234 | -66.35931 | 30526 ft | 458 kts | 313° |
| 2026-04-28 19:00 | 46.91168 | -66.39667 | 30846 ft | 458 kts | 313° |
| 2026-04-28 19:00 | 46.93087 | -66.43379 | 31222 ft | 457 kts | 313° |
| 2026-04-28 19:00 | 46.95006 | -66.47098 | 31569 ft | 456 kts | 313° |
| 2026-04-28 19:01 | 46.96909 | -66.50790 | 32068 ft | 451 kts | 312° |
| 2026-04-28 19:01 | 46.98788 | -66.54439 | 32647 ft | 445 kts | 313° |
| 2026-04-28 19:01 | 47.00635 | -66.58029 | 33240 ft | 437 kts | 313° |
| 2026-04-28 19:01 | 47.02429 | -66.61522 | 33862 ft | 430 kts | 313° |
| 2026-04-28 19:02 | 47.04213 | -66.65001 | 34439 ft | 423 kts | 313° |
| 2026-04-28 19:02 | 47.05968 | -66.68427 | 34880 ft | 418 kts | 313° |
| 2026-04-28 19:02 | 47.07710 | -66.71833 | 35168 ft | 416 kts | 313° |
| 2026-04-28 19:02 | 47.09448 | -66.75233 | 35392 ft | 416 kts | 313° |
| 2026-04-28 19:03 | 47.11186 | -66.78635 | 35633 ft | 414 kts | 312° |
| 2026-04-28 19:03 | 47.12907 | -66.82013 | 36006 ft | 411 kts | 312° |
| 2026-04-28 19:03 | 47.14620 | -66.85379 | 36214 ft | 411 kts | 312° |
| 2026-04-28 19:03 | 47.16320 | -66.88720 | 36278 ft | 412 kts | 312° |
| 2026-04-28 19:04 | 47.19760 | -66.95497 | 36274 ft | 412 kts | 312° |
| 2026-04-28 19:04 | 47.23164 | -67.02219 | 36263 ft | 412 kts | 312° |
| 2026-04-28 19:05 | 47.26596 | -67.09013 | 36250 ft | 411 kts | 311° |
| 2026-04-28 19:05 | 47.29972 | -67.15714 | 36261 ft | 408 kts | 311° |
| 2026-04-28 19:06 | 47.32795 | -67.21330 | 36260 ft | 408 kts | 311° |
| 2026-04-28 19:06 | 47.36736 | -67.29191 | 36264 ft | 409 kts | 310° |
| 2026-04-28 19:07 | 47.39494 | -67.36608 | 36275 ft | 415 kts | 303° |
| 2026-04-28 19:07 | 47.42139 | -67.44178 | 36254 ft | 413 kts | 302° |
| 2026-04-28 19:08 | 47.44743 | -67.51682 | 36252 ft | 412 kts | 302° |
| 2026-04-28 19:08 | 47.47358 | -67.59243 | 36258 ft | 412 kts | 302° |
| 2026-04-28 19:09 | 47.49949 | -67.66754 | 36270 ft | 412 kts | 302° |
| 2026-04-28 19:09 | 47.52557 | -67.74337 | 36270 ft | 412 kts | 302° |
| 2026-04-28 19:10 | 47.55178 | -67.81879 | 36268 ft | 412 kts | 301° |
| 2026-04-28 19:10 | 47.57785 | -67.89393 | 36281 ft | 412 kts | 301° |
| 2026-04-28 19:11 | 47.60405 | -67.96964 | 36267 ft | 412 kts | 301° |
| 2026-04-28 19:11 | 47.63007 | -68.04509 | 36259 ft | 412 kts | 301° |
| 2026-04-28 19:12 | 47.65619 | -68.12103 | 36256 ft | 412 kts | 301° |
| 2026-04-28 19:12 | 47.68209 | -68.19658 | 36243 ft | 413 kts | 301° |
| 2026-04-28 19:13 | 47.70815 | -68.27279 | 36239 ft | 413 kts | 301° |
| 2026-04-28 19:13 | 47.73399 | -68.34859 | 36245 ft | 413 kts | 301° |
| 2026-04-28 19:14 | 47.75997 | -68.42501 | 36241 ft | 413 kts | 301° |
| 2026-04-28 19:14 | 47.78571 | -68.50094 | 36233 ft | 413 kts | 300° |
| 2026-04-28 19:15 | 47.81154 | -68.57738 | 36230 ft | 412 kts | 300° |
| 2026-04-28 19:15 | 47.83295 | -68.64091 | 36218 ft | 413 kts | 300° |
| 2026-04-28 19:16 | 47.86289 | -68.73002 | 36220 ft | 413 kts | 300° |
| 2026-04-28 19:16 | 47.88859 | -68.80675 | 36216 ft | 413 kts | 300° |
| 2026-04-28 19:17 | 47.91407 | -68.88306 | 36204 ft | 411 kts | 299° |
| 2026-04-28 19:17 | 47.93955 | -68.95959 | 36209 ft | 411 kts | 298° |
| 2026-04-28 19:18 | 47.96487 | -69.03587 | 36201 ft | 411 kts | 298° |
| 2026-04-28 19:18 | 47.99015 | -69.11224 | 36195 ft | 411 kts | 298° |
| 2026-04-28 19:19 | 48.01553 | -69.18914 | 36184 ft | 412 kts | 298° |
| 2026-04-28 19:19 | 48.04073 | -69.26573 | 36193 ft | 413 kts | 298° |
| 2026-04-28 19:20 | 48.06589 | -69.34244 | 36197 ft | 412 kts | 297° |
| 2026-04-28 19:20 | 48.09110 | -69.41954 | 36200 ft | 412 kts | 297° |
| 2026-04-28 19:21 | 48.11637 | -69.49703 | 36217 ft | 413 kts | 297° |
| 2026-04-28 19:21 | 48.14136 | -69.57394 | 36201 ft | 413 kts | 297° |
| 2026-04-28 19:22 | 48.15810 | -69.62557 | 36209 ft | 415 kts | 297° |
| 2026-04-28 19:22 | 48.19162 | -69.72925 | 36204 ft | 414 kts | 296° |
| 2026-04-28 19:23 | 48.21676 | -69.80734 | 36199 ft | 415 kts | 296° |
| 2026-04-28 19:23 | 48.24166 | -69.88488 | 36197 ft | 415 kts | 296° |
| 2026-04-28 19:24 | 48.26672 | -69.96319 | 36189 ft | 416 kts | 296° |
| 2026-04-28 19:24 | 48.29170 | -70.04144 | 36192 ft | 417 kts | 296° |
| 2026-04-28 19:25 | 48.31679 | -70.12030 | 36172 ft | 417 kts | 296° |
| 2026-04-28 19:25 | 48.34162 | -70.19862 | 36179 ft | 417 kts | 295° |
| 2026-04-28 19:26 | 48.36662 | -70.27769 | 36165 ft | 417 kts | 295° |
| 2026-04-28 19:26 | 48.39139 | -70.35632 | 36150 ft | 418 kts | 295° |
| 2026-04-28 19:27 | 48.41633 | -70.43568 | 36150 ft | 418 kts | 294° |
| 2026-04-28 19:27 | 48.44108 | -70.51473 | 36117 ft | 418 kts | 294° |
| 2026-04-28 19:28 | 48.46594 | -70.59437 | 36104 ft | 419 kts | 294° |
| 2026-04-28 19:28 | 48.49056 | -70.67351 | 36096 ft | 419 kts | 293° |
| 2026-04-28 19:29 | 48.51119 | -70.73998 | 36085 ft | 421 kts | 293° |
| 2026-04-28 19:29 | 48.54005 | -70.83329 | 36108 ft | 421 kts | 293° |
| 2026-04-28 19:30 | 48.56476 | -70.91347 | 36109 ft | 421 kts | 293° |
| 2026-04-28 19:30 | 48.58933 | -70.99346 | 36091 ft | 421 kts | 293° |
| 2026-04-28 19:31 | 48.60980 | -71.06030 | 36095 ft | 422 kts | 292° |
| 2026-04-28 19:31 | 48.63449 | -71.14118 | 36095 ft | 423 kts | 292° |
| 2026-04-28 19:32 | 48.65905 | -71.22184 | 36078 ft | 423 kts | 292° |
| 2026-04-28 19:32 | 48.68374 | -71.30324 | 36073 ft | 424 kts | 292° |
| 2026-04-28 19:33 | 48.70815 | -71.38397 | 36072 ft | 424 kts | 292° |
| 2026-04-28 19:33 | 48.73268 | -71.46536 | 36062 ft | 425 kts | 291° |
| 2026-04-28 19:34 | 48.75708 | -71.54660 | 36070 ft | 425 kts | 291° |
| 2026-04-28 19:34 | 48.78155 | -71.62831 | 36058 ft | 425 kts | 291° |
| 2026-04-28 19:35 | 48.80596 | -71.71011 | 36053 ft | 425 kts | 291° |
| 2026-04-28 19:35 | 48.83022 | -71.79170 | 36058 ft | 425 kts | 291° |
| 2026-04-28 19:36 | 48.85456 | -71.87381 | 36040 ft | 426 kts | 291° |
| 2026-04-28 19:36 | 48.87884 | -71.95602 | 36053 ft | 426 kts | 291° |
| 2026-04-28 19:37 | 48.89898 | -72.02441 | 36040 ft | 426 kts | 291° |
| 2026-04-28 19:37 | 48.92697 | -72.11975 | 36039 ft | 426 kts | 291° |
| 2026-04-28 19:38 | 48.95109 | -72.20226 | 36048 ft | 427 kts | 290° |
| 2026-04-28 19:38 | 48.97543 | -72.28577 | 36041 ft | 432 kts | 289° |
| 2026-04-28 19:39 | 48.99960 | -72.36899 | 36024 ft | 431 kts | 289° |
| 2026-04-28 19:39 | 49.02383 | -72.45270 | 36021 ft | 431 kts | 289° |
| 2026-04-28 19:40 | 49.04805 | -72.53661 | 36011 ft | 431 kts | 289° |
| 2026-04-28 19:40 | 49.07211 | -72.62023 | 36016 ft | 433 kts | 289° |
| 2026-04-28 19:41 | 49.09623 | -72.70433 | 36005 ft | 434 kts | 289° |
| 2026-04-28 19:41 | 49.12040 | -72.78888 | 36002 ft | 434 kts | 289° |
| 2026-04-28 19:42 | 49.14447 | -72.87337 | 35993 ft | 433 kts | 289° |
| 2026-04-28 19:42 | 49.16444 | -72.94370 | 35995 ft | 433 kts | 289° |
| 2026-04-28 19:43 | 49.19142 | -73.04296 | 35984 ft | 434 kts | 287° |
| 2026-04-28 19:43 | 49.21412 | -73.12849 | 35981 ft | 435 kts | 287° |
| 2026-04-28 19:44 | 49.23690 | -73.21424 | 35974 ft | 435 kts | 287° |
| 2026-04-28 19:44 | 49.25947 | -73.29951 | 35969 ft | 435 kts | 287° |
| 2026-04-28 19:45 | 49.28218 | -73.38566 | 35983 ft | 436 kts | 286° |
| 2026-04-28 19:45 | 49.30481 | -73.47176 | 35956 ft | 437 kts | 286° |
| 2026-04-28 19:46 | 49.32753 | -73.55859 | 35951 ft | 437 kts | 286° |
| 2026-04-28 19:46 | 49.34997 | -73.64464 | 35944 ft | 437 kts | 286° |
| 2026-04-28 19:47 | 49.37259 | -73.73168 | 35937 ft | 437 kts | 286° |
| 2026-04-28 19:47 | 49.39500 | -73.81828 | 35934 ft | 439 kts | 285° |
| 2026-04-28 19:48 | 49.41753 | -73.90571 | 35933 ft | 439 kts | 285° |
| 2026-04-28 19:48 | 49.43986 | -73.99264 | 35918 ft | 439 kts | 285° |
| 2026-04-28 19:49 | 49.46227 | -74.08025 | 35906 ft | 439 kts | 285° |
| 2026-04-28 19:49 | 49.48451 | -74.16752 | 35947 ft | 440 kts | 284° |
| 2026-04-28 19:50 | 49.51811 | -74.29999 | 35884 ft | 445 kts | 284° |
| 2026-04-28 19:51 | 49.54059 | -74.38909 | 35878 ft | 445 kts | 284° |
| 2026-04-28 19:51 | 49.56286 | -74.47768 | 35867 ft | 445 kts | 284° |
| 2026-04-28 19:52 | 49.58521 | -74.56693 | 35904 ft | 445 kts | 284° |
| 2026-04-28 19:52 | 49.60756 | -74.65658 | 35863 ft | 452 kts | 284° |
| 2026-04-28 19:53 | 49.63010 | -74.74732 | 35853 ft | 452 kts | 284° |
| 2026-04-28 19:53 | 49.65243 | -74.83758 | 35855 ft | 451 kts | 284° |
| 2026-04-28 19:54 | 49.67473 | -74.92812 | 35841 ft | 449 kts | 284° |
| 2026-04-28 19:54 | 49.69685 | -75.01826 | 35847 ft | 451 kts | 284° |
| 2026-04-28 19:55 | 49.71904 | -75.10907 | 35828 ft | 453 kts | 283° |
| 2026-04-28 19:55 | 49.74128 | -75.20049 | 35824 ft | 453 kts | 283° |
| 2026-04-28 19:56 | 49.76332 | -75.29142 | 35801 ft | 453 kts | 283° |
| 2026-04-28 19:56 | 49.78542 | -75.38302 | 35807 ft | 453 kts | 283° |
| 2026-04-28 19:57 | 49.80738 | -75.47436 | 35793 ft | 454 kts | 283° |
| 2026-04-28 19:57 | 49.82936 | -75.56623 | 35779 ft | 455 kts | 283° |
| 2026-04-28 19:58 | 49.85132 | -75.65836 | 35774 ft | 455 kts | 283° |
| 2026-04-28 19:58 | 49.87302 | -75.74984 | 35761 ft | 455 kts | 283° |
| 2026-04-28 19:59 | 49.89488 | -75.84235 | 35757 ft | 455 kts | 283° |
| 2026-04-28 19:59 | 49.91649 | -75.93417 | 35751 ft | 455 kts | 283° |
| 2026-04-28 20:00 | 49.93804 | -76.02617 | 35745 ft | 455 kts | 283° |
| 2026-04-28 20:00 | 49.95964 | -76.11873 | 35744 ft | 455 kts | 283° |
| 2026-04-28 20:01 | 49.98099 | -76.21064 | 35769 ft | 455 kts | 282° |
| 2026-04-28 20:01 | 50.00249 | -76.30361 | 35731 ft | 457 kts | 282° |
| 2026-04-28 20:02 | 50.02386 | -76.39640 | 35717 ft | 457 kts | 282° |
| 2026-04-28 20:02 | 50.04526 | -76.48974 | 35720 ft | 457 kts | 282° |
| 2026-04-28 20:03 | 50.06660 | -76.58321 | 35714 ft | 457 kts | 282° |
| 2026-04-28 20:03 | 50.08778 | -76.67646 | 35735 ft | 459 kts | 282° |
| 2026-04-28 20:04 | 50.10902 | -76.77029 | 35701 ft | 462 kts | 282° |
| 2026-04-28 20:04 | 50.13034 | -76.86494 | 35699 ft | 462 kts | 282° |
| 2026-04-28 20:05 | 50.15156 | -76.95958 | 35688 ft | 460 kts | 282° |
| 2026-04-28 20:05 | 50.17254 | -77.05355 | 35694 ft | 460 kts | 282° |
| 2026-04-28 20:06 | 50.19349 | -77.14786 | 35687 ft | 464 kts | 281° |
| 2026-04-28 20:06 | 50.21464 | -77.24341 | 35675 ft | 465 kts | 281° |
| 2026-04-28 20:07 | 50.23559 | -77.33855 | 35682 ft | 465 kts | 281° |
| 2026-04-28 20:07 | 50.25658 | -77.43431 | 35674 ft | 465 kts | 281° |
| 2026-04-28 20:08 | 50.27736 | -77.52958 | 35697 ft | 466 kts | 281° |
| 2026-04-28 20:08 | 50.29832 | -77.62609 | 35670 ft | 468 kts | 281° |
| 2026-04-28 20:09 | 50.31925 | -77.72288 | 35664 ft | 468 kts | 281° |
| 2026-04-28 20:09 | 50.33995 | -77.81913 | 35657 ft | 468 kts | 281° |
| 2026-04-28 20:10 | 50.36070 | -77.91605 | 35659 ft | 468 kts | 281° |
| 2026-04-28 20:10 | 50.38125 | -78.01247 | 35643 ft | 466 kts | 281° |
| 2026-04-28 20:11 | 50.40163 | -78.10856 | 35634 ft | 467 kts | 281° |
| 2026-04-28 20:11 | 50.42196 | -78.20486 | 35631 ft | 466 kts | 281° |
| 2026-04-28 20:12 | 50.44235 | -78.30193 | 35622 ft | 466 kts | 281° |
| 2026-04-28 20:12 | 50.46248 | -78.39822 | 35643 ft | 465 kts | 281° |
| 2026-04-28 20:13 | 50.48254 | -78.49460 | 35605 ft | 463 kts | 281° |
| 2026-04-28 20:13 | 50.50244 | -78.59071 | 35606 ft | 464 kts | 281° |
| 2026-04-28 20:14 | 50.52231 | -78.68716 | 35592 ft | 464 kts | 281° |
| 2026-04-28 20:14 | 50.54213 | -78.78379 | 35590 ft | 464 kts | 281° |
| 2026-04-28 20:15 | 50.56175 | -78.87991 | 35579 ft | 463 kts | 281° |
| 2026-04-28 20:15 | 50.58139 | -78.97664 | 35569 ft | 463 kts | 281° |
| 2026-04-28 20:16 | 50.60087 | -79.07306 | 35572 ft | 463 kts | 281° |
| 2026-04-28 20:16 | 50.62035 | -79.16995 | 35565 ft | 463 kts | 281° |
| 2026-04-28 20:17 | 50.63963 | -79.26627 | 35559 ft | 463 kts | 281° |
| 2026-04-28 20:17 | 50.65571 | -79.34692 | 35550 ft | 464 kts | 281° |
| 2026-04-28 20:18 | 50.67818 | -79.46005 | 35548 ft | 464 kts | 281° |
| 2026-04-28 20:18 | 50.69420 | -79.54112 | 35542 ft | 464 kts | 281° |
| 2026-04-28 20:19 | 50.71337 | -79.63854 | 35532 ft | 464 kts | 281° |
| 2026-04-28 20:19 | 50.73233 | -79.73541 | 35526 ft | 462 kts | 282° |
| 2026-04-28 20:20 | 50.75116 | -79.83203 | 35519 ft | 462 kts | 282° |
| 2026-04-28 20:20 | 50.77003 | -79.92931 | 35526 ft | 462 kts | 282° |
| 2026-04-28 20:21 | 50.78754 | -80.02637 | 35511 ft | 459 kts | 279° |
| 2026-04-28 20:21 | 50.80366 | -80.12448 | 35498 ft | 460 kts | 279° |
| 2026-04-28 20:22 | 50.81987 | -80.22190 | 35485 ft | 460 kts | 279° |
| 2026-04-28 20:22 | 50.83613 | -80.31995 | 35495 ft | 460 kts | 279° |
| 2026-04-28 20:23 | 50.85225 | -80.41767 | 35494 ft | 460 kts | 279° |
| 2026-04-28 20:23 | 50.86837 | -80.51599 | 35490 ft | 460 kts | 279° |
| 2026-04-28 20:24 | 50.88428 | -80.61356 | 35494 ft | 460 kts | 279° |
| 2026-04-28 20:24 | 50.90022 | -80.71197 | 35484 ft | 460 kts | 279° |
| 2026-04-28 20:25 | 50.91606 | -80.81025 | 35485 ft | 460 kts | 279° |
| 2026-04-28 20:25 | 50.93175 | -80.90824 | 35481 ft | 459 kts | 279° |
| 2026-04-28 20:26 | 50.94734 | -81.00616 | 35473 ft | 459 kts | 279° |
| 2026-04-28 20:26 | 50.96290 | -81.10445 | 35481 ft | 459 kts | 279° |
| 2026-04-28 20:27 | 50.97836 | -81.20278 | 35469 ft | 459 kts | 279° |
| 2026-04-28 20:27 | 50.99370 | -81.30083 | 35462 ft | 459 kts | 279° |
| 2026-04-28 20:28 | 51.00893 | -81.39880 | 35463 ft | 459 kts | 279° |
| 2026-04-28 20:28 | 51.02415 | -81.49735 | 35480 ft | 459 kts | 280° |
| 2026-04-28 20:29 | 51.03928 | -81.59590 | 35457 ft | 458 kts | 280° |
| 2026-04-28 20:29 | 51.05428 | -81.69415 | 35456 ft | 459 kts | 279° |
| 2026-04-28 20:30 | 51.06928 | -81.79305 | 35455 ft | 459 kts | 279° |
| 2026-04-28 20:30 | 51.08410 | -81.89134 | 35454 ft | 459 kts | 279° |
| 2026-04-28 20:31 | 51.09884 | -81.98975 | 35467 ft | 458 kts | 280° |
| 2026-04-28 20:31 | 51.11356 | -82.08865 | 35454 ft | 458 kts | 280° |
| 2026-04-28 20:32 | 51.12810 | -82.18691 | 35457 ft | 458 kts | 280° |
| 2026-04-28 20:32 | 51.14266 | -82.28593 | 35454 ft | 458 kts | 280° |
| 2026-04-28 20:33 | 51.15702 | -82.38428 | 35460 ft | 458 kts | 280° |
| 2026-04-28 20:33 | 51.17136 | -82.48309 | 35455 ft | 456 kts | 280° |
| 2026-04-28 20:34 | 51.18561 | -82.58191 | 35466 ft | 456 kts | 280° |
| 2026-04-28 20:34 | 51.19974 | -82.68051 | 35461 ft | 456 kts | 280° |
| 2026-04-28 20:35 | 51.21369 | -82.77851 | 35470 ft | 456 kts | 280° |
| 2026-04-28 20:35 | 51.22755 | -82.87726 | 35456 ft | 454 kts | 268° |
| 2026-04-28 20:35 | 51.22308 | -82.92376 | 33252 ft | 393 kts | 258° |
| 2026-04-28 20:36 | 51.22100 | -82.96566 | 23077 ft | 429 kts | 258° |
| 2026-04-28 20:36 | 51.21684 | -82.98888 | 16689 ft | 379 kts | 226° |